Time;durP1;ratioP1;P1;durP2;ratioP2;P2;SDS_P1;SDS_P2;PMS_P1;PMS_P2;Temp;Humidity;BMP_temperature;BMP_pressure;BME280_temperature;BME280_humidity;BME280_pressure;Samples;Min_cycle;Max_cycle;Signal;HPM_P1;HPM_P2
2023/05/22 00:01:48;;;;;;;9.50;6.72;;;;;;;;;;5009481;28;20180;-49
2023/05/22 00:04:20;;;;;;;7.72;6.88;;;;;;;;;;5013107;28;20266;-50
2023/05/22 00:06:46;;;;;;;8.10;7.25;;;;;;;;;;5014149;28;20184;-51
2023/05/22 00:09:12;;;;;;;8.30;7.13;;;;;;;;;;5013428;28;20238;-49
2023/05/22 00:11:38;;;;;;;8.73;6.82;;;;;;;;;;5010113;28;20584;-49
2023/05/22 00:14:04;;;;;;;8.10;6.93;;;;;;;;;;5010887;28;20560;-49
2023/05/22 00:16:30;;;;;;;7.40;6.47;;;;;;;;;;5008678;28;20219;-50
2023/05/22 00:18:56;;;;;;;8.10;7.15;;;;;;;;;;5012435;28;20431;-49
2023/05/22 00:21:23;;;;;;;11.57;7.15;;;;;;;;;;5012418;28;20192;-49
2023/05/22 00:23:49;;;;;;;8.48;6.57;;;;;;;;;;5010362;28;20187;-50
2023/05/22 00:26:16;;;;;;;11.43;7.28;;;;;;;;;;5007274;28;20568;-50
2023/05/22 00:28:44;;;;;;;8.55;7.25;;;;;;;;;;5008767;28;20263;-50
2023/05/22 00:31:10;;;;;;;8.63;6.30;;;;;;;;;;5013813;28;20183;-50
2023/05/22 00:33:36;;;;;;;7.57;6.68;;;;;;;;;;5013815;28;20448;-50
2023/05/22 00:36:02;;;;;;;8.65;6.60;;;;;;;;;;5009953;28;20228;-49
2023/05/22 00:38:32;;;;;;;9.23;7.10;;;;;;;;;;5017723;28;20255;-50
2023/05/22 00:40:58;;;;;;;7.03;5.95;;;;;;;;;;5014456;28;20186;-50
2023/05/22 00:43:25;;;;;;;9.32;6.57;;;;;;;;;;5014811;28;20217;-50
2023/05/22 00:45:51;;;;;;;7.95;7.10;;;;;;;;;;5009916;28;20295;-50
2023/05/22 00:48:17;;;;;;;8.25;7.28;;;;;;;;;;5016191;28;20181;-49
2023/05/22 00:50:43;;;;;;;7.22;6.20;;;;;;;;;;5014013;28;20184;-50
2023/05/22 00:53:09;;;;;;;8.07;7.05;;;;;;;;;;5012285;28;20579;-49
2023/05/22 00:55:35;;;;;;;7.30;6.57;;;;;;;;;;5015611;28;20180;-49
2023/05/22 00:58:06;;;;;;;8.02;6.63;;;;;;;;;;5010467;28;20181;-49
2023/05/22 01:00:33;;;;;;;7.88;7.07;;;;;;;;;;5017033;28;20291;-49
2023/05/22 01:03:00;;;;;;;7.85;6.40;;;;;;;;;;5014047;28;20274;-49
2023/05/22 01:05:26;;;;;;;9.07;6.78;;;;;;;;;;5016263;28;20207;-50
2023/05/22 01:07:52;;;;;;;8.38;6.95;;;;;;;;;;5013928;28;20484;-49
2023/05/22 01:10:18;;;;;;;8.38;6.43;;;;;;;;;;5016418;28;20220;-50
2023/05/22 01:12:56;;;;;;;7.10;6.40;;;;;;;;;;5010873;28;20544;-50
2023/05/22 01:15:34;;;;;;;7.85;6.85;;;;;;;;;;5028322;28;20246;-49
2023/05/22 01:18:18;;;;;;;6.53;5.93;;;;;;;;;;5016609;28;20188;-50
2023/05/22 01:20:52;;;;;;;7.93;6.80;;;;;;;;;;5006991;28;20192;-50
2023/05/22 01:23:27;;;;;;;7.45;6.75;;;;;;;;;;5009978;28;20275;-49
2023/05/22 01:26:08;;;;;;;7.63;6.80;;;;;;;;;;5017770;28;20250;-50
2023/05/22 01:28:53;;;;;;;7.75;6.47;;;;;;;;;;5011020;28;20275;-50
2023/05/22 01:31:23;;;;;;;7.30;6.35;;;;;;;;;;5015697;28;20270;-49
2023/05/22 01:33:54;;;;;;;8.02;6.43;;;;;;;;;;5011278;28;20192;-51
2023/05/22 01:36:23;;;;;;;7.80;6.53;;;;;;;;;;5015577;28;20189;-49
2023/05/22 01:38:50;;;;;;;9.27;6.15;;;;;;;;;;5015660;28;20476;-50
2023/05/22 01:41:16;;;;;;;8.10;6.65;;;;;;;;;;5009191;28;20235;-50
2023/05/22 01:43:42;;;;;;;7.40;6.63;;;;;;;;;;5014616;28;20177;-51
2023/05/22 01:46:08;;;;;;;9.48;6.55;;;;;;;;;;5016464;28;20508;-50
2023/05/22 01:48:35;;;;;;;7.70;6.50;;;;;;;;;;5014495;28;20188;-50
2023/05/22 01:51:13;;;;;;;13.93;7.22;;;;;;;;;;5009089;28;20239;-49
2023/05/22 01:53:41;;;;;;;10.45;6.55;;;;;;;;;;5018680;28;20192;-51
2023/05/22 01:56:11;;;;;;;7.07;6.32;;;;;;;;;;5015868;28;20196;-51
2023/05/22 01:58:40;;;;;;;7.25;6.30;;;;;;;;;;5014920;28;20195;-50
2023/05/22 02:01:07;;;;;;;6.97;6.22;;;;;;;;;;5016226;28;20231;-52
2023/05/22 02:03:34;;;;;;;6.80;6.10;;;;;;;;;;5014394;28;20215;-50
2023/05/22 02:06:02;;;;;;;6.95;6.20;;;;;;;;;;5013552;28;20205;-50
2023/05/22 02:08:29;;;;;;;7.25;6.50;;;;;;;;;;5016029;28;20204;-51
2023/05/22 02:10:55;;;;;;;8.05;7.15;;;;;;;;;;5015784;28;20231;-50
2023/05/22 02:13:22;;;;;;;9.00;6.78;;;;;;;;;;5023928;28;20274;-49
2023/05/22 02:15:48;;;;;;;7.85;6.70;;;;;;;;;;5014819;28;20181;-50
2023/05/22 02:18:14;;;;;;;8.10;6.40;;;;;;;;;;5012480;28;20424;-50
2023/05/22 02:20:41;;;;;;;7.97;7.18;;;;;;;;;;5014604;28;20618;-51
2023/05/22 02:23:07;;;;;;;8.85;6.53;;;;;;;;;;5013101;28;20188;-50
2023/05/22 02:25:33;;;;;;;8.75;6.95;;;;;;;;;;5014300;28;20580;-50
2023/05/22 02:27:58;;;;;;;7.07;6.38;;;;;;;;;;5016279;28;20196;-51
2023/05/22 02:30:24;;;;;;;7.50;6.78;;;;;;;;;;5014933;28;20192;-51
2023/05/22 02:32:50;;;;;;;10.75;6.63;;;;;;;;;;5015464;28;20168;-49
2023/05/22 02:35:16;;;;;;;6.97;6.28;;;;;;;;;;5016315;28;20176;-49
2023/05/22 02:37:42;;;;;;;7.22;6.47;;;;;;;;;;5012275;28;20210;-49
2023/05/22 02:40:11;;;;;;;8.52;6.78;;;;;;;;;;5005062;28;20225;-50
2023/05/22 02:42:37;;;;;;;6.88;6.13;;;;;;;;;;5015737;28;20191;-50
2023/05/22 02:45:03;;;;;;;7.43;6.28;;;;;;;;;;5014350;28;20196;-50
2023/05/22 02:47:29;;;;;;;8.00;6.30;;;;;;;;;;5006701;28;20246;-49
2023/05/22 02:49:56;;;;;;;7.88;6.43;;;;;;;;;;5010202;28;20211;-49
2023/05/22 02:52:23;;;;;;;8.10;6.65;;;;;;;;;;5014847;28;20176;-51
2023/05/22 02:54:49;;;;;;;8.57;6.25;;;;;;;;;;5012425;28;20188;-50
2023/05/22 02:57:15;;;;;;;7.93;7.03;;;;;;;;;;5007019;28;20185;-49
2023/05/22 02:59:41;;;;;;;7.55;6.85;;;;;;;;;;5014205;28;20204;-51
2023/05/22 03:02:07;;;;;;;8.13;7.00;;;;;;;;;;5009931;28;20236;-51
2023/05/22 03:04:37;;;;;;;8.60;6.80;;;;;;;;;;5006473;28;20224;-50
2023/05/22 03:07:02;;;;;;;7.40;6.63;;;;;;;;;;5012468;28;20454;-50
2023/05/22 03:09:28;;;;;;;7.43;6.70;;;;;;;;;;5011861;28;20181;-51
2023/05/22 03:11:54;;;;;;;7.80;6.80;;;;;;;;;;5015247;28;20208;-51
2023/05/22 03:14:20;;;;;;;8.27;6.85;;;;;;;;;;5013223;28;20183;-51
2023/05/22 03:16:46;;;;;;;9.50;6.32;;;;;;;;;;5009153;28;20251;-50
2023/05/22 03:19:13;;;;;;;7.45;6.65;;;;;;;;;;5009327;28;20501;-50
2023/05/22 03:21:39;;;;;;;10.32;7.15;;;;;;;;;;5012940;28;20521;-50
2023/05/22 03:24:06;;;;;;;7.28;6.47;;;;;;;;;;5015186;28;20560;-49
2023/05/22 03:26:32;;;;;;;8.70;6.70;;;;;;;;;;5013656;28;20212;-50
2023/05/22 03:28:57;;;;;;;7.68;6.72;;;;;;;;;;5013669;28;20184;-50
2023/05/22 03:31:25;;;;;;;7.32;6.53;;;;;;;;;;5014489;28;20180;-51
2023/05/22 03:33:51;;;;;;;9.18;6.88;;;;;;;;;;5015312;28;20199;-51
2023/05/22 03:36:17;;;;;;;7.50;6.20;;;;;;;;;;5014775;28;20279;-51
2023/05/22 03:38:43;;;;;;;8.43;6.80;;;;;;;;;;5014989;28;20195;-50
2023/05/22 03:41:09;;;;;;;8.40;6.55;;;;;;;;;;5003988;28;20267;-50
2023/05/22 03:43:35;;;;;;;28.08;11.13;;;;;;;;;;5013603;28;20540;-51
2023/05/22 03:46:01;;;;;;;25.77;10.07;;;;;;;;;;5011001;28;20646;-51
2023/05/22 03:48:27;;;;;;;24.67;9.95;;;;;;;;;;5013369;28;20189;-51
2023/05/22 03:50:53;;;;;;;17.55;9.27;;;;;;;;;;5014457;28;20187;-50
2023/05/22 03:53:19;;;;;;;14.95;8.52;;;;;;;;;;5016035;28;20516;-51
2023/05/22 03:55:45;;;;;;;19.55;9.80;;;;;;;;;;5015697;28;20203;-51
2023/05/22 03:58:11;;;;;;;26.15;10.50;;;;;;;;;;5014681;28;20180;-50
2023/05/22 04:00:37;;;;;;;26.27;10.82;;;;;;;;;;5013258;28;20189;-50
2023/05/22 04:03:03;;;;;;;37.08;13.13;;;;;;;;;;5015355;28;20449;-50
2023/05/22 04:05:30;;;;;;;27.58;11.95;;;;;;;;;;5014506;28;20258;-51
2023/05/22 04:07:56;;;;;;;30.48;11.52;;;;;;;;;;5015020;28;20561;-49
2023/05/22 04:10:22;;;;;;;31.08;12.35;;;;;;;;;;5013290;28;20193;-50
2023/05/22 04:12:48;;;;;;;24.25;10.13;;;;;;;;;;5015906;28;20728;-51
2023/05/22 04:15:14;;;;;;;24.60;9.93;;;;;;;;;;5009641;28;20188;-51
2023/05/22 04:17:40;;;;;;;21.25;9.82;;;;;;;;;;5014223;28;20185;-49
2023/05/22 04:20:07;;;;;;;22.40;9.80;;;;;;;;;;5013336;28;20196;-49
2023/05/22 04:22:33;;;;;;;20.77;9.85;;;;;;;;;;5011807;28;20177;-51
2023/05/22 04:24:59;;;;;;;23.48;10.93;;;;;;;;;;5014261;28;20602;-51
2023/05/22 04:27:25;;;;;;;23.92;10.05;;;;;;;;;;5013713;28;20196;-50
2023/05/22 04:29:52;;;;;;;17.85;8.43;;;;;;;;;;5012942;28;20169;-51
2023/05/22 04:32:20;;;;;;;18.88;9.75;;;;;;;;;;5018674;28;20187;-51
2023/05/22 04:34:48;;;;;;;21.67;9.27;;;;;;;;;;5012993;28;20189;-51
2023/05/22 04:37:14;;;;;;;15.38;8.85;;;;;;;;;;5014274;28;20184;-51
2023/05/22 04:39:40;;;;;;;15.02;9.05;;;;;;;;;;5011825;28;20195;-51
2023/05/22 04:42:06;;;;;;;15.25;8.98;;;;;;;;;;5014002;28;20180;-50
2023/05/22 04:44:33;;;;;;;15.68;8.85;;;;;;;;;;5002906;28;20204;-51
2023/05/22 04:47:02;;;;;;;20.02;8.95;;;;;;;;;;5011730;28;20234;-51
2023/05/22 04:49:28;;;;;;;15.05;8.65;;;;;;;;;;5023246;28;20208;-51
2023/05/22 04:51:56;;;;;;;15.77;8.48;;;;;;;;;;5007722;28;20564;-51
2023/05/22 04:54:23;;;;;;;14.75;8.45;;;;;;;;;;5009282;28;20184;-51
2023/05/22 04:56:49;;;;;;;15.88;8.18;;;;;;;;;;5013287;28;20444;-51
2023/05/22 04:59:15;;;;;;;12.77;8.00;;;;;;;;;;5012775;28;20189;-51
2023/05/22 05:01:45;;;;;;;14.52;8.20;;;;;;;;;;5004099;28;20720;-49
2023/05/22 05:04:11;;;;;;;10.98;7.75;;;;;;;;;;5010183;28;20189;-51
2023/05/22 05:06:37;;;;;;;13.15;8.27;;;;;;;;;;5007100;28;20218;-50
2023/05/22 05:09:04;;;;;;;14.18;8.00;;;;;;;;;;5007997;28;20193;-51
2023/05/22 05:11:29;;;;;;;13.23;7.97;;;;;;;;;;5002601;28;20180;-51
2023/05/22 05:13:55;;;;;;;10.50;7.32;;;;;;;;;;5005532;28;20188;-51
2023/05/22 05:16:23;;;;;;;12.80;8.00;;;;;;;;;;5010738;28;20191;-51
2023/05/22 05:18:50;;;;;;;11.43;7.50;;;;;;;;;;5012809;28;20184;-49
2023/05/22 05:21:16;;;;;;;11.20;8.00;;;;;;;;;;5006855;28;20268;-51
2023/05/22 05:23:42;;;;;;;11.68;7.30;;;;;;;;;;5013185;28;20259;-49
2023/05/22 05:26:08;;;;;;;10.98;7.25;;;;;;;;;;5014375;28;20287;-52
2023/05/22 05:28:34;;;;;;;11.32;7.80;;;;;;;;;;5013937;28;20203;-50
2023/05/22 05:31:00;;;;;;;11.48;7.28;;;;;;;;;;5015836;28;20188;-50
2023/05/22 05:33:26;;;;;;;11.40;7.22;;;;;;;;;;5017194;28;21129;-49
2023/05/22 05:35:52;;;;;;;10.88;7.20;;;;;;;;;;5031843;28;20184;-51
2023/05/22 05:38:18;;;;;;;12.57;7.30;;;;;;;;;;5016406;28;20188;-50
2023/05/22 05:40:44;;;;;;;13.65;8.25;;;;;;;;;;5012620;28;20185;-50
2023/05/22 05:43:13;;;;;;;13.95;8.07;;;;;;;;;;5017067;28;20184;-49
2023/05/22 05:45:39;;;;;;;10.95;7.68;;;;;;;;;;5014103;28;20223;-49
2023/05/22 05:48:05;;;;;;;11.38;7.80;;;;;;;;;;5010470;28;20185;-50
2023/05/22 05:50:31;;;;;;;10.50;7.43;;;;;;;;;;5014284;28;20242;-51
2023/05/22 05:52:57;;;;;;;10.15;7.18;;;;;;;;;;5012848;28;20687;-51
2023/05/22 05:55:23;;;;;;;9.90;6.90;;;;;;;;;;5015840;28;20427;-51
2023/05/22 05:57:50;;;;;;;10.63;7.20;;;;;;;;;;5015495;28;20232;-50
2023/05/22 06:00:16;;;;;;;9.90;7.00;;;;;;;;;;5014816;28;20180;-50
2023/05/22 06:02:42;;;;;;;10.50;6.75;;;;;;;;;;5008880;28;20216;-50
2023/05/22 06:05:09;;;;;;;8.70;6.97;;;;;;;;;;5017043;28;20216;-50
2023/05/22 06:07:36;;;;;;;10.32;6.63;;;;;;;;;;5015632;28;20173;-50
2023/05/22 06:10:03;;;;;;;10.27;6.82;;;;;;;;;;5010981;28;20279;-51
2023/05/22 06:12:29;;;;;;;9.70;6.45;;;;;;;;;;5015481;28;20382;-50
2023/05/22 06:14:55;;;;;;;8.50;6.07;;;;;;;;;;5008361;28;20177;-50
2023/05/22 06:17:21;;;;;;;9.32;6.93;;;;;;;;;;5012154;28;20204;-50
2023/05/22 06:19:47;;;;;;;8.20;6.05;;;;;;;;;;5015034;28;20290;-50
2023/05/22 06:22:13;;;;;;;8.27;6.28;;;;;;;;;;5011498;28;20504;-51
2023/05/22 06:24:39;;;;;;;11.05;6.50;;;;;;;;;;5009192;28;20220;-50
2023/05/22 06:27:05;;;;;;;8.45;5.95;;;;;;;;;;5015125;28;20488;-50
2023/05/22 06:29:31;;;;;;;8.57;6.65;;;;;;;;;;5015208;28;20507;-50
2023/05/22 06:31:57;;;;;;;8.05;6.47;;;;;;;;;;5014454;28;20176;-50
2023/05/22 06:34:24;;;;;;;8.85;6.38;;;;;;;;;;5013809;28;20744;-51
2023/05/22 06:36:50;;;;;;;6.85;5.78;;;;;;;;;;5012371;28;20180;-51
2023/05/22 06:39:17;;;;;;;9.15;6.28;;;;;;;;;;5011228;28;20184;-51
2023/05/22 06:41:42;;;;;;;9.10;6.85;;;;;;;;;;5008506;28;20196;-51
2023/05/22 06:44:09;;;;;;;7.85;6.28;;;;;;;;;;5006022;28;20187;-51
2023/05/22 06:46:35;;;;;;;7.82;6.57;;;;;;;;;;5012251;28;20477;-51
2023/05/22 06:49:00;;;;;;;8.80;6.28;;;;;;;;;;5013765;28;20194;-50
2023/05/22 06:51:28;;;;;;;7.70;5.93;;;;;;;;;;5013486;28;20722;-50
2023/05/22 06:53:54;;;;;;;8.02;6.43;;;;;;;;;;5006718;28;20207;-51
2023/05/22 06:56:21;;;;;;;7.85;6.15;;;;;;;;;;5015997;28;20212;-49
2023/05/22 06:58:47;;;;;;;7.40;6.15;;;;;;;;;;5014042;28;20279;-51
2023/05/22 07:01:13;;;;;;;6.82;6.18;;;;;;;;;;5015414;28;20238;-50
2023/05/22 07:03:39;;;;;;;8.13;6.10;;;;;;;;;;5014130;28;20191;-51
2023/05/22 07:06:06;;;;;;;7.88;5.72;;;;;;;;;;5012967;28;20216;-51
2023/05/22 07:08:32;;;;;;;10.80;6.05;;;;;;;;;;5015171;28;20173;-50
2023/05/22 07:10:58;;;;;;;7.15;5.70;;;;;;;;;;5014352;28;20191;-51
2023/05/22 07:13:24;;;;;;;7.63;5.95;;;;;;;;;;5014356;28;20584;-50
2023/05/22 07:15:50;;;;;;;6.80;5.60;;;;;;;;;;5013960;28;20192;-51
2023/05/22 07:18:16;;;;;;;8.20;5.90;;;;;;;;;;5003639;28;20221;-51
2023/05/22 07:20:42;;;;;;;8.15;5.97;;;;;;;;;;5007576;28;20196;-50
2023/05/22 07:23:08;;;;;;;8.27;5.20;;;;;;;;;;5003881;28;20185;-49
2023/05/22 07:25:34;;;;;;;7.00;5.68;;;;;;;;;;5009579;28;20287;-51
2023/05/22 07:28:02;;;;;;;7.90;5.65;;;;;;;;;;5009163;28;20280;-51
2023/05/22 07:30:28;;;;;;;6.47;5.43;;;;;;;;;;5013800;28;20190;-51
2023/05/22 07:32:54;;;;;;;7.03;5.85;;;;;;;;;;5015205;28;20223;-50
2023/05/22 07:35:20;;;;;;;6.80;5.50;;;;;;;;;;5009280;28;20196;-50
2023/05/22 07:37:46;;;;;;;6.93;5.40;;;;;;;;;;5011189;28;20192;-50
2023/05/22 07:40:12;;;;;;;6.55;5.88;;;;;;;;;;5014668;28;20181;-50
2023/05/22 07:42:38;;;;;;;6.22;5.60;;;;;;;;;;5015255;28;20267;-50
2023/05/22 07:45:04;;;;;;;6.40;5.68;;;;;;;;;;5015109;28;20265;-49
2023/05/22 07:47:30;;;;;;;6.32;5.72;;;;;;;;;;5015064;28;20218;-50
2023/05/22 07:49:56;;;;;;;6.70;5.80;;;;;;;;;;5015474;28;20499;-49
2023/05/22 07:52:22;;;;;;;7.50;5.63;;;;;;;;;;5015924;28;20252;-51
2023/05/22 07:54:48;;;;;;;6.80;5.32;;;;;;;;;;5014924;28;20623;-50
2023/05/22 07:57:15;;;;;;;6.20;5.60;;;;;;;;;;5007112;28;20568;-49
2023/05/22 07:59:42;;;;;;;6.40;5.75;;;;;;;;;;5012183;28;20181;-50
2023/05/22 08:02:08;;;;;;;6.53;5.80;;;;;;;;;;5012240;28;20204;-50
2023/05/22 08:04:34;;;;;;;6.57;5.90;;;;;;;;;;5027555;28;20196;-51
2023/05/22 08:07:00;;;;;;;5.40;4.90;;;;;;;;;;5012218;28;20223;-51
2023/05/22 08:09:26;;;;;;;6.15;5.55;;;;;;;;;;5010750;28;20496;-51
2023/05/22 08:11:52;;;;;;;6.93;5.85;;;;;;;;;;5008937;28;20547;-50
2023/05/22 08:14:18;;;;;;;7.28;5.70;;;;;;;;;;5009166;28;20219;-51
2023/05/22 08:16:44;;;;;;;7.05;5.63;;;;;;;;;;5013718;28;20247;-50
2023/05/22 08:19:10;;;;;;;8.00;5.65;;;;;;;;;;5011325;28;20459;-50
2023/05/22 08:21:36;;;;;;;7.72;5.28;;;;;;;;;;5011596;28;20464;-50
2023/05/22 08:24:02;;;;;;;7.22;5.53;;;;;;;;;;5004196;28;20188;-49
2023/05/22 08:26:28;;;;;;;8.13;5.63;;;;;;;;;;5005656;28;20181;-50
2023/05/22 08:28:54;;;;;;;5.60;5.10;;;;;;;;;;5001950;28;20185;-51
2023/05/22 08:31:21;;;;;;;6.03;5.47;;;;;;;;;;5009894;28;20192;-51
2023/05/22 08:33:47;;;;;;;6.53;5.47;;;;;;;;;;5013292;28;20429;-51
2023/05/22 08:36:13;;;;;;;6.15;5.55;;;;;;;;;;5014432;28;20176;-51
2023/05/22 08:38:39;;;;;;;7.22;5.35;;;;;;;;;;5013654;28;20260;-51
2023/05/22 08:41:05;;;;;;;9.20;5.55;;;;;;;;;;5013990;28;20598;-50
2023/05/22 08:43:31;;;;;;;6.65;5.95;;;;;;;;;;5007796;28;20189;-50
2023/05/22 08:46:04;;;;;;;5.60;5.10;;;;;;;;;;5014064;28;20468;-51
2023/05/22 08:48:31;;;;;;;5.75;5.05;;;;;;;;;;5011065;28;20464;-50
2023/05/22 08:50:58;;;;;;;6.18;5.63;;;;;;;;;;5013234;28;20168;-51
2023/05/22 08:53:26;;;;;;;6.55;5.40;;;;;;;;;;5008849;28;20199;-51
2023/05/22 08:55:52;;;;;;;8.18;6.10;;;;;;;;;;5012284;28;20239;-51
2023/05/22 08:58:18;;;;;;;6.93;6.18;;;;;;;;;;5025254;28;20504;-50
2023/05/22 09:00:45;;;;;;;6.22;5.63;;;;;;;;;;5016156;28;20221;-50
2023/05/22 09:03:13;;;;;;;5.70;5.07;;;;;;;;;;5016202;28;20177;-50
2023/05/22 09:05:40;;;;;;;6.95;5.57;;;;;;;;;;5033058;28;20227;-51
2023/05/22 09:08:09;;;;;;;9.90;5.47;;;;;;;;;;5015814;28;20174;-50
2023/05/22 09:10:36;;;;;;;7.30;5.78;;;;;;;;;;5016051;28;20560;-50
2023/05/22 09:13:03;;;;;;;6.03;5.43;;;;;;;;;;5033541;28;20215;-50
2023/05/22 09:15:31;;;;;;;8.82;5.45;;;;;;;;;;5011804;28;20207;-51
2023/05/22 09:17:58;;;;;;;6.35;5.10;;;;;;;;;;5009744;28;20185;-51
2023/05/22 09:20:24;;;;;;;5.70;5.15;;;;;;;;;;5017437;28;20262;-50
2023/05/22 09:22:49;;;;;;;6.57;5.15;;;;;;;;;;5004436;28;20275;-51
2023/05/22 09:25:19;;;;;;;7.35;5.28;;;;;;;;;;5008476;28;20286;-49
2023/05/22 09:27:46;;;;;;;8.77;5.35;;;;;;;;;;5014902;28;20208;-51
2023/05/22 09:30:15;;;;;;;5.82;5.25;;;;;;;;;;5015067;28;20279;-51
2023/05/22 09:32:41;;;;;;;6.93;5.53;;;;;;;;;;5014715;28;20210;-51
2023/05/22 09:35:07;;;;;;;5.70;5.03;;;;;;;;;;5016142;28;20546;-51
2023/05/22 09:37:34;;;;;;;6.75;5.63;;;;;;;;;;5015713;28;20203;-51
2023/05/22 09:40:04;;;;;;;6.25;5.50;;;;;;;;;;5016989;28;20192;-51
2023/05/22 09:42:32;;;;;;;5.90;5.30;;;;;;;;;;5015458;28;20492;-50
2023/05/22 09:45:02;;;;;;;6.65;5.55;;;;;;;;;;5014421;28;20230;-50
2023/05/22 09:47:27;;;;;;;8.13;5.28;;;;;;;;;;5016576;28;20212;-50
2023/05/22 09:49:56;;;;;;;6.57;5.18;;;;;;;;;;5016758;28;20211;-50
2023/05/22 09:52:23;;;;;;;7.20;5.70;;;;;;;;;;5018202;28;20184;-50
2023/05/22 09:54:54;;;;;;;5.53;4.97;;;;;;;;;;5015980;28;20184;-50
2023/05/22 09:57:21;;;;;;;5.43;4.85;;;;;;;;;;5015776;28;20884;-51
2023/05/22 09:59:53;;;;;;;5.47;4.90;;;;;;;;;;5016563;28;20208;-50
2023/05/22 10:02:20;;;;;;;6.47;5.18;;;;;;;;;;5016478;28;20528;-51
2023/05/22 10:04:48;;;;;;;7.03;5.18;;;;;;;;;;5016452;28;20208;-51
2023/05/22 10:07:15;;;;;;;5.90;5.30;;;;;;;;;;5016649;28;20470;-51
2023/05/22 10:09:42;;;;;;;5.35;4.85;;;;;;;;;;5015949;28;20176;-51
2023/05/22 10:12:09;;;;;;;5.43;4.93;;;;;;;;;;5016038;28;20663;-49
2023/05/22 10:14:35;;;;;;;6.20;5.22;;;;;;;;;;5015508;28;20495;-50
2023/05/22 10:17:03;;;;;;;5.57;4.85;;;;;;;;;;5013260;28;20184;-50
2023/05/22 10:19:31;;;;;;;5.82;5.32;;;;;;;;;;5015768;28;20188;-50
2023/05/22 10:21:57;;;;;;;6.38;4.70;;;;;;;;;;5015385;28;20180;-50
2023/05/22 10:24:24;;;;;;;5.63;4.70;;;;;;;;;;5006169;28;20192;-50
2023/05/22 10:26:51;;;;;;;5.88;5.28;;;;;;;;;;5012644;28;20193;-51
2023/05/22 10:29:21;;;;;;;6.68;4.82;;;;;;;;;;5009882;28;20184;-51
2023/05/22 10:32:04;;;;;;;6.47;4.90;;;;;;;;;;5009798;28;20188;-51
2023/05/22 10:34:36;;;;;;;5.88;5.22;;;;;;;;;;5004973;28;20184;-51
2023/05/22 10:37:12;;;;;;;6.00;4.88;;;;;;;;;;5014353;28;20199;-49
2023/05/22 10:39:54;;;;;;;5.32;4.82;;;;;;;;;;5011270;28;20188;-51
2023/05/22 10:42:20;;;;;;;7.88;5.03;;;;;;;;;;5009361;28;20691;-50
2023/05/22 10:44:46;;;;;;;6.18;4.97;;;;;;;;;;5015946;28;20243;-50
2023/05/22 10:47:13;;;;;;;6.43;5.20;;;;;;;;;;5008269;28;20212;-51
2023/05/22 10:49:43;;;;;;;4.75;4.35;;;;;;;;;;5010744;28;20193;-51
2023/05/22 10:52:10;;;;;;;6.10;4.45;;;;;;;;;;5012388;28;20183;-51
2023/05/22 10:54:38;;;;;;;5.40;4.90;;;;;;;;;;5012312;28;20283;-51
2023/05/22 10:57:14;;;;;;;5.65;4.72;;;;;;;;;;5008206;28;20256;-51
2023/05/22 10:59:41;;;;;;;5.70;5.13;;;;;;;;;;5012025;28;20192;-50
2023/05/22 11:02:17;;;;;;;6.43;5.40;;;;;;;;;;5014128;28;20185;-50
2023/05/22 11:04:43;;;;;;;5.85;5.30;;;;;;;;;;5015781;28;20499;-50
2023/05/22 11:07:12;;;;;;;4.82;4.32;;;;;;;;;;5015249;28;20246;-51
2023/05/22 11:09:47;;;;;;;5.30;4.72;;;;;;;;;;5010285;28;20185;-51
2023/05/22 11:12:16;;;;;;;5.55;4.95;;;;;;;;;;5011085;28;20613;-50
2023/05/22 11:14:43;;;;;;;6.30;5.10;;;;;;;;;;5009203;28;20575;-51
2023/05/22 11:17:12;;;;;;;5.80;5.20;;;;;;;;;;5003954;28;20227;-50
2023/05/22 11:19:39;;;;;;;4.93;4.45;;;;;;;;;;5010955;28;20226;-51
2023/05/22 11:22:05;;;;;;;8.70;5.00;;;;;;;;;;5009921;28;20184;-50
2023/05/22 11:24:35;;;;;;;5.70;4.90;;;;;;;;;;5016233;28;20601;-50
2023/05/22 11:27:04;;;;;;;5.18;4.68;;;;;;;;;;5009922;28;20184;-51
2023/05/22 11:29:30;;;;;;;5.15;4.65;;;;;;;;;;5012485;28;20210;-50
2023/05/22 11:31:56;;;;;;;6.85;4.90;;;;;;;;;;5029200;28;20185;-51
2023/05/22 11:34:23;;;;;;;5.55;4.93;;;;;;;;;;5009320;28;20200;-50
2023/05/22 11:36:49;;;;;;;5.50;4.40;;;;;;;;;;5026298;28;20177;-50
2023/05/22 11:39:16;;;;;;;5.25;4.75;;;;;;;;;;5012950;28;20606;-51
2023/05/22 11:41:42;;;;;;;7.30;5.25;;;;;;;;;;5013681;28;20173;-49
2023/05/22 11:44:08;;;;;;;5.90;5.22;;;;;;;;;;5029506;28;20192;-51
2023/05/22 11:46:34;;;;;;;6.00;4.63;;;;;;;;;;5012159;28;20584;-51
2023/05/22 11:49:00;;;;;;;4.78;4.20;;;;;;;;;;5014400;28;20393;-51
2023/05/22 11:51:29;;;;;;;5.75;4.38;;;;;;;;;;5026959;28;20179;-51
2023/05/22 11:53:56;;;;;;;5.32;4.43;;;;;;;;;;5013587;28;20184;-51
2023/05/22 11:56:22;;;;;;;5.28;4.78;;;;;;;;;;5012144;28;20266;-50
2023/05/22 11:58:49;;;;;;;4.63;4.13;;;;;;;;;;5009711;28;20232;-51
2023/05/22 12:01:15;;;;;;;5.75;4.70;;;;;;;;;;5012196;28;20177;-49
2023/05/22 12:03:41;;;;;;;7.80;4.68;;;;;;;;;;5010322;28;20189;-51
2023/05/22 12:06:07;;;;;;;6.20;4.43;;;;;;;;;;5013703;28;20216;-50
2023/05/22 12:08:33;;;;;;;4.93;4.50;;;;;;;;;;5014188;28;20169;-51
2023/05/22 12:10:59;;;;;;;5.00;4.50;;;;;;;;;;5028271;28;20193;-50
2023/05/22 12:13:29;;;;;;;4.85;4.28;;;;;;;;;;5013231;28;20184;-51
2023/05/22 12:15:57;;;;;;;9.98;4.93;;;;;;;;;;5013654;28;20232;-51
2023/05/22 12:18:23;;;;;;;6.28;4.68;;;;;;;;;;5012414;28;20181;-51
2023/05/22 12:20:53;;;;;;;6.68;5.10;;;;;;;;;;5010920;28;20212;-50
2023/05/22 12:23:25;;;;;;;5.82;4.75;;;;;;;;;;5010304;28;20286;-51
2023/05/22 12:26:01;;;;;;;4.63;4.10;;;;;;;;;;5012945;28;20208;-51
2023/05/22 12:28:27;;;;;;;4.57;4.03;;;;;;;;;;5012165;28;20239;-50
2023/05/22 12:30:54;;;;;;;4.70;4.30;;;;;;;;;;5012845;28;20552;-51
2023/05/22 12:33:25;;;;;;;5.72;4.50;;;;;;;;;;5013508;28;20200;-51
2023/05/22 12:35:51;;;;;;;4.82;4.32;;;;;;;;;;5009918;28;20268;-49
2023/05/22 12:38:20;;;;;;;6.32;4.40;;;;;;;;;;5016912;28;20291;-51
2023/05/22 12:40:46;;;;;;;5.53;4.43;;;;;;;;;;5015866;28;20473;-51
2023/05/22 12:43:12;;;;;;;4.70;4.28;;;;;;;;;;5017204;28;20211;-51
2023/05/22 12:45:41;;;;;;;9.45;4.32;;;;;;;;;;5011640;28;20207;-51
2023/05/22 12:48:07;;;;;;;4.63;4.10;;;;;;;;;;5010022;28;20179;-51
2023/05/22 12:50:33;;;;;;;7.07;4.30;;;;;;;;;;5012092;28;20192;-50
2023/05/22 12:52:59;;;;;;;5.53;4.85;;;;;;;;;;5014869;28;20218;-49
2023/05/22 12:55:25;;;;;;;5.28;4.57;;;;;;;;;;5016594;28;20179;-51
2023/05/22 12:57:51;;;;;;;5.80;4.47;;;;;;;;;;5015033;28;20251;-50
2023/05/22 13:00:17;;;;;;;5.20;4.35;;;;;;;;;;5016664;28;20185;-50
2023/05/22 13:02:43;;;;;;;4.93;4.43;;;;;;;;;;5017173;28;20195;-51
2023/05/22 13:05:09;;;;;;;5.35;4.50;;;;;;;;;;5019464;28;20232;-51
2023/05/22 13:07:35;;;;;;;5.50;4.18;;;;;;;;;;5019786;28;20180;-51
2023/05/22 13:10:02;;;;;;;8.35;3.97;;;;;;;;;;5016187;28;20210;-50
2023/05/22 13:12:30;;;;;;;5.30;4.07;;;;;;;;;;5008321;28;20181;-51
2023/05/22 13:14:56;;;;;;;6.20;4.70;;;;;;;;;;5013589;28;20267;-50
2023/05/22 13:17:22;;;;;;;5.43;4.70;;;;;;;;;;5013595;28;20271;-50
2023/05/22 13:19:48;;;;;;;5.40;4.63;;;;;;;;;;5004836;28;20209;-50
2023/05/22 13:22:14;;;;;;;5.78;5.20;;;;;;;;;;5010081;28;20181;-50
2023/05/22 13:24:40;;;;;;;5.82;5.28;;;;;;;;;;5013884;28;20279;-51
2023/05/22 13:27:06;;;;;;;6.60;5.32;;;;;;;;;;5012055;28;20271;-50
2023/05/22 13:29:32;;;;;;;6.22;5.55;;;;;;;;;;5009509;28;20176;-50
2023/05/22 13:31:58;;;;;;;7.18;5.70;;;;;;;;;;5016385;28;20173;-50
2023/05/22 13:34:24;;;;;;;8.57;5.78;;;;;;;;;;5013287;28;20203;-50
2023/05/22 13:36:50;;;;;;;7.32;5.10;;;;;;;;;;5014843;28;20315;-51
2023/05/22 13:39:16;;;;;;;7.82;5.45;;;;;;;;;;5011514;28;20252;-50
2023/05/22 13:41:42;;;;;;;6.13;5.40;;;;;;;;;;5008773;28;20192;-51
2023/05/22 13:44:08;;;;;;;6.53;5.13;;;;;;;;;;5017800;28;20434;-51
2023/05/22 13:46:34;;;;;;;5.75;5.15;;;;;;;;;;5009520;28;20240;-51
2023/05/22 13:48:59;;;;;;;7.65;5.47;;;;;;;;;;5025759;28;20258;-51
2023/05/22 13:51:25;;;;;;;5.13;4.63;;;;;;;;;;5013875;28;20267;-51
2023/05/22 13:53:51;;;;;;;6.13;4.78;;;;;;;;;;5015318;28;20183;-51
2023/05/22 13:56:17;;;;;;;6.03;5.43;;;;;;;;;;5014141;28;20177;-50
2023/05/22 13:58:43;;;;;;;6.70;5.50;;;;;;;;;;5010155;28;20268;-50
2023/05/22 14:01:09;;;;;;;5.53;4.57;;;;;;;;;;5011908;28;20466;-50
2023/05/22 14:03:35;;;;;;;7.07;4.60;;;;;;;;;;5016326;28;20185;-52
2023/05/22 14:06:01;;;;;;;8.90;4.70;;;;;;;;;;5011211;28;20537;-51
2023/05/22 14:08:27;;;;;;;5.45;4.63;;;;;;;;;;5015167;28;20212;-57
2023/05/22 14:10:53;;;;;;;8.40;5.10;;;;;;;;;;5013379;28;20212;-51
2023/05/22 14:13:19;;;;;;;9.77;5.13;;;;;;;;;;5015037;28;20211;-51
2023/05/22 14:15:45;;;;;;;6.03;4.70;;;;;;;;;;5009040;28;20585;-51
2023/05/22 14:18:12;;;;;;;6.07;4.95;;;;;;;;;;5014818;28;20199;-51
2023/05/22 14:20:40;;;;;;;7.05;5.00;;;;;;;;;;5012409;28;20223;-51
2023/05/22 14:23:06;;;;;;;6.93;4.30;;;;;;;;;;5005855;28;20209;-50
2023/05/22 14:25:31;;;;;;;7.57;4.38;;;;;;;;;;5015769;28;20235;-51
2023/05/22 14:27:58;;;;;;;5.05;4.18;;;;;;;;;;5006453;28;20479;-51
2023/05/22 14:30:23;;;;;;;4.95;4.43;;;;;;;;;;5027460;28;20221;-50
2023/05/22 14:32:49;;;;;;;5.10;4.60;;;;;;;;;;5012321;28;20251;-52
2023/05/22 14:35:15;;;;;;;5.25;4.43;;;;;;;;;;5013025;28;20443;-52
2023/05/22 14:37:42;;;;;;;6.65;4.53;;;;;;;;;;5015630;28;20218;-50
2023/05/22 14:40:08;;;;;;;5.30;4.80;;;;;;;;;;5008586;28;20192;-50